createdAt,value
2023-03-16T00:01:25.532Z,98340.09
2023-03-16T00:03:59.939Z,98349.25
2023-03-16T00:06:33.016Z,98345.59
2023-03-16T00:09:06.124Z,98342.66
2023-03-16T00:11:39.199Z,98336.06
2023-03-16T00:14:12.280Z,98341.81
2023-03-16T00:16:45.324Z,98347.41
2023-03-16T00:19:19.702Z,98348.47
2023-03-16T00:21:53.546Z,98349.19
2023-03-16T00:24:27.048Z,98345.72
2023-03-16T00:27:01.036Z,98343.19
2023-03-16T00:29:34.880Z,98340.03
2023-03-16T00:32:08.832Z,98337.50
2023-03-16T00:34:43.680Z,98350.06
2023-03-16T00:37:20.138Z,98342.72
2023-03-16T00:39:56.296Z,98347.66
2023-03-16T00:42:34.102Z,98355.84
2023-03-16T00:45:09.323Z,98350.03
2023-03-16T00:47:42.509Z,98343.56
2023-03-16T00:50:17.263Z,98345.31
2023-03-16T00:52:53.613Z,98353.94
2023-03-16T00:55:27.068Z,98343.31
2023-03-16T00:58:00.137Z,98349.53
2023-03-16T01:00:34.006Z,98353.81
2023-03-16T01:03:07.192Z,98347.41
2023-03-16T01:05:45.613Z,98350.84
2023-03-16T01:08:18.610Z,98349.69
2023-03-16T01:10:51.658Z,98345.41
2023-03-16T01:13:24.662Z,98353.44
2023-03-16T01:15:57.740Z,98346.53
2023-03-16T01:18:34.246Z,98342.41
2023-03-16T01:21:13.832Z,98341.03
2023-03-16T01:23:47.162Z,98342.88
2023-03-16T01:26:20.821Z,98340.19
2023-03-16T01:28:54.506Z,98346.38
2023-03-16T01:31:29.215Z,98343.78
2023-03-16T01:34:04.152Z,98347.75
2023-03-16T01:36:39.001Z,98333.34
2023-03-16T01:39:12.389Z,98341.19
2023-03-16T01:41:47.693Z,98333.72
2023-03-16T01:44:30.364Z,98331.38
2023-03-16T01:47:03.446Z,98329.50
2023-03-16T01:49:39.049Z,98325.47
2023-03-16T01:52:18.130Z,98319.78
2023-03-16T01:54:53.948Z,98322.63
2023-03-16T01:57:32.483Z,98326.75
2023-03-16T02:00:18.651Z,98315.50
2023-03-16T02:02:57.192Z,98321.09
2023-03-16T02:05:35.059Z,98316.63
2023-03-16T02:08:12.582Z,98328.78
2023-03-16T02:10:46.111Z,98312.28
2023-03-16T02:13:19.127Z,98320.84
2023-03-16T02:15:53.563Z,98323.84
2023-03-16T02:18:27.268Z,98326.28
2023-03-16T02:21:09.169Z,98326.69
2023-03-16T02:23:44.374Z,98319.56
2023-03-16T02:26:27.996Z,98322.41
2023-03-16T02:29:18.245Z,98316.81
2023-03-16T02:31:54.276Z,98317.69
2023-03-16T02:34:28.236Z,98304.31
2023-03-16T02:37:02.377Z,98305.94
2023-03-16T02:39:35.480Z,98302.47
2023-03-16T02:42:14.768Z,98298.00
2023-03-16T02:44:52.040Z,98289.91
2023-03-16T02:47:35.632Z,98302.31
2023-03-16T02:50:12.991Z,98300.38
2023-03-16T02:52:47.950Z,98298.19
2023-03-16T02:55:21.735Z,98299.50
2023-03-16T02:57:54.759Z,98303.03
2023-03-16T03:00:29.937Z,98291.47
2023-03-16T03:03:04.938Z,98303.50
2023-03-16T03:05:38.872Z,98300.94
2023-03-16T03:08:12.136Z,98297.13
2023-03-16T03:10:45.231Z,98298.09
2023-03-16T03:13:18.370Z,98292.28
2023-03-16T03:15:52.779Z,98291.78
2023-03-16T03:18:27.248Z,98288.97
2023-03-16T03:21:00.270Z,98290.25
2023-03-16T03:23:34.945Z,98286.34
2023-03-16T03:26:08.017Z,98289.56
2023-03-16T03:28:41.168Z,98282.59
2023-03-16T03:31:18.593Z,98282.13
2023-03-16T03:33:54.114Z,98290.16
2023-03-16T03:36:27.762Z,98290.31
2023-03-16T03:39:03.304Z,98286.75
2023-03-16T03:41:36.434Z,98272.00
2023-03-16T03:44:10.034Z,98268.78
2023-03-16T03:46:43.205Z,98275.09
2023-03-16T03:49:17.641Z,98262.53
2023-03-16T03:51:51.289Z,98270.28
2023-03-16T03:54:24.324Z,98282.03
2023-03-16T03:56:57.879Z,98274.75
2023-03-16T03:59:31.122Z,98279.53
2023-03-16T04:02:04.292Z,98269.97
2023-03-16T04:04:39.090Z,98262.47
2023-03-16T04:07:13.223Z,98255.09
2023-03-16T04:09:46.277Z,98260.59
2023-03-16T04:12:19.389Z,98254.38
2023-03-16T04:14:52.716Z,98253.81
2023-03-16T04:17:25.747Z,98249.13
2023-03-16T04:20:00.158Z,98247.16
2023-03-16T04:22:33.225Z,98243.78
2023-03-16T04:25:06.968Z,98248.94
2023-03-16T04:27:40.547Z,98254.28
2023-03-16T04:30:16.011Z,98250.97
2023-03-16T04:32:49.072Z,98242.88
2023-03-16T04:35:23.959Z,98238.97
2023-03-16T04:37:56.997Z,98241.97
2023-03-16T04:40:30.377Z,98239.75
2023-03-16T04:43:03.397Z,98236.53
2023-03-16T04:45:36.453Z,98238.00
2023-03-16T04:48:09.638Z,98244.66
2023-03-16T04:50:44.070Z,98241.56
2023-03-16T04:53:17.086Z,98240.41
2023-03-16T04:55:50.195Z,98238.63
2023-03-16T04:58:24.409Z,98235.63
2023-03-16T05:00:57.504Z,98236.78
2023-03-16T05:03:30.549Z,98237.34
2023-03-16T05:06:05.233Z,98237.69
2023-03-16T05:08:38.492Z,98220.25
2023-03-16T05:11:11.658Z,98225.88
2023-03-16T05:13:44.675Z,98230.16
2023-03-16T05:16:17.843Z,98221.88
2023-03-16T05:18:52.856Z,98233.41
2023-03-16T05:21:27.332Z,98228.03
2023-03-16T05:24:00.443Z,98235.16
2023-03-16T05:26:33.896Z,98233.06
2023-03-16T05:29:06.996Z,98236.47
2023-03-16T05:31:40.014Z,98229.81
2023-03-16T05:34:13.101Z,98229.91
2023-03-16T05:36:47.432Z,98233.22
2023-03-16T05:39:20.476Z,98221.56
2023-03-16T05:41:55.093Z,98220.84
2023-03-16T05:44:28.119Z,98225.31
2023-03-16T05:47:01.190Z,98226.44
2023-03-16T05:49:34.555Z,98239.00
2023-03-16T05:52:09.126Z,98232.34
2023-03-16T05:54:42.974Z,98234.56
2023-03-16T05:57:15.993Z,98223.69
2023-03-16T05:59:50.583Z,98229.75
2023-03-16T06:02:23.857Z,98234.34
2023-03-16T06:04:56.953Z,98236.63
2023-03-16T06:07:31.382Z,98234.59
2023-03-16T06:10:05.925Z,98229.88
2023-03-16T06:12:39.147Z,98229.31
2023-03-16T06:15:13.205Z,98222.81
2023-03-16T06:17:46.229Z,98221.91
2023-03-16T06:20:19.896Z,98228.03
2023-03-16T06:22:54.366Z,98224.59
2023-03-16T06:25:27.394Z,98222.25
2023-03-16T06:28:00.450Z,98228.53
2023-03-16T06:30:33.492Z,98222.72
2023-03-16T06:33:06.652Z,98220.28
2023-03-16T06:35:39.845Z,98221.31
2023-03-16T06:38:14.607Z,98221.63
2023-03-16T06:40:51.928Z,98222.78
2023-03-16T06:43:25.000Z,98216.34
2023-03-16T06:45:58.844Z,98220.03
2023-03-16T06:48:31.913Z,98216.13
2023-03-16T06:51:07.165Z,98211.09
2023-03-16T06:53:41.636Z,98220.41
2023-03-16T06:56:14.890Z,98202.66
2023-03-16T06:58:47.984Z,98213.16
2023-03-16T07:01:21.593Z,98208.91
2023-03-16T07:03:54.733Z,98217.13
2023-03-16T07:06:28.252Z,98214.34
2023-03-16T07:09:04.966Z,98223.69
2023-03-16T07:11:38.078Z,98214.72
2023-03-16T07:14:11.876Z,98220.59
2023-03-16T07:16:45.009Z,98215.47
2023-03-16T07:19:18.087Z,98218.00
2023-03-16T07:21:51.681Z,98213.59
2023-03-16T07:24:26.082Z,98219.13
2023-03-16T07:26:59.140Z,98212.72
2023-03-16T07:29:32.252Z,98212.59
2023-03-16T07:32:05.920Z,98214.22
2023-03-16T07:34:39.114Z,98221.94
2023-03-16T07:37:12.634Z,98214.06
2023-03-16T07:39:47.043Z,98213.13
2023-03-16T07:42:20.191Z,98214.00
2023-03-16T07:44:53.219Z,98215.75
2023-03-16T07:47:26.784Z,98217.84
2023-03-16T07:49:59.792Z,98215.78
2023-03-16T07:52:35.868Z,98213.50
2023-03-16T07:55:12.018Z,98211.44
2023-03-16T07:57:47.922Z,98208.66
2023-03-16T08:00:24.064Z,98202.03
2023-03-16T08:02:57.622Z,98206.50
2023-03-16T08:05:32.375Z,98206.88
2023-03-16T08:08:05.920Z,98215.81
2023-03-16T08:10:40.365Z,98213.66
2023-03-16T08:13:13.974Z,98212.31
2023-03-16T08:15:55.963Z,98214.53
2023-03-16T08:18:30.510Z,98215.19
2023-03-16T08:21:04.244Z,98207.31
2023-03-16T08:23:37.296Z,98215.72
2023-03-16T08:26:11.691Z,98214.53
2023-03-16T08:28:47.046Z,98210.38
2023-03-16T08:31:21.617Z,98213.53
2023-03-16T08:33:54.657Z,98213.31
2023-03-16T08:36:29.053Z,98217.72
2023-03-16T08:39:06.924Z,98210.75
2023-03-16T08:41:42.903Z,98216.41
2023-03-16T08:44:15.901Z,98214.63
2023-03-16T08:46:49.073Z,98207.91
2023-03-16T08:49:22.109Z,98204.44
2023-03-16T08:51:55.211Z,98211.13
2023-03-16T08:54:28.211Z,98207.78
2023-03-16T08:57:02.695Z,98217.44
2023-03-16T08:59:36.434Z,98201.72
2023-03-16T09:02:13.986Z,98201.59
2023-03-16T09:04:47.183Z,98210.69
2023-03-16T09:07:20.651Z,98202.03
2023-03-16T09:09:53.753Z,98202.47
2023-03-16T09:12:28.107Z,98187.75
2023-03-16T09:15:01.887Z,98181.69
2023-03-16T09:17:35.762Z,98172.22
2023-03-16T09:20:29.707Z,98171.63
2023-03-16T09:23:03.605Z,98175.72
2023-03-16T09:25:36.721Z,98185.97
2023-03-16T09:28:11.364Z,98176.69
2023-03-16T09:30:44.934Z,98175.91
2023-03-16T09:33:18.091Z,98175.72
2023-03-16T09:35:52.042Z,98173.56
2023-03-16T09:38:26.378Z,98173.13
2023-03-16T09:41:01.631Z,98162.81
2023-03-16T09:44:00.211Z,98157.34
2023-03-16T09:46:38.610Z,98163.28
2023-03-16T09:49:12.965Z,98162.34
2023-03-16T09:51:53.216Z,98155.03
2023-03-16T09:54:35.994Z,98159.28
2023-03-16T09:57:23.015Z,98153.91
2023-03-16T10:00:02.964Z,98143.03
2023-03-16T10:02:58.666Z,98140.09
2023-03-16T10:05:32.919Z,98135.78
2023-03-16T10:08:14.974Z,98135.28
2023-03-16T10:11:10.338Z,98119.06
2023-03-16T10:13:49.772Z,98129.47
2023-03-16T10:16:31.804Z,98120.44
2023-03-16T10:19:15.331Z,98117.22
2023-03-16T10:21:50.414Z,98119.88
2023-03-16T10:24:39.134Z,98112.69
2023-03-16T10:27:21.504Z,98115.63
2023-03-16T10:29:55.091Z,98112.59
2023-03-16T10:32:35.723Z,98110.63
2023-03-16T10:35:23.829Z,98117.50
2023-03-16T10:37:58.595Z,98117.59
2023-03-16T10:40:33.511Z,98113.19
2023-03-16T10:43:09.287Z,98118.09
2023-03-16T10:45:47.883Z,98113.19
2023-03-16T10:48:23.219Z,98112.19
2023-03-16T10:50:58.374Z,98115.84
2023-03-16T10:53:36.801Z,98104.75
2023-03-16T10:56:19.983Z,98104.34
2023-03-16T10:58:53.310Z,98100.41
2023-03-16T11:01:29.833Z,98096.41
2023-03-16T11:04:04.251Z,98093.16
2023-03-16T11:06:37.290Z,98094.53
2023-03-16T11:09:21.377Z,98089.88
2023-03-16T11:11:54.752Z,98087.25
2023-03-16T11:14:29.579Z,98077.22
2023-03-16T11:17:10.573Z,98084.88
2023-03-16T11:19:54.384Z,98089.47
2023-03-16T11:22:30.168Z,98099.41
2023-03-16T11:25:14.168Z,98111.38
2023-03-16T11:27:54.225Z,98103.34
2023-03-16T11:30:30.937Z,98092.81
2023-03-16T11:33:04.189Z,98089.63
2023-03-16T11:35:58.416Z,98074.56
2023-03-16T11:38:38.610Z,98068.94
2023-03-16T11:41:15.426Z,98071.06
2023-03-16T11:43:54.856Z,98081.59
2023-03-16T11:46:30.648Z,98076.59
2023-03-16T11:49:29.073Z,98074.25
2023-03-16T11:52:15.808Z,98069.28
2023-03-16T11:55:06.264Z,98057.44
2023-03-16T11:57:51.844Z,98052.34
2023-03-16T12:00:36.517Z,98061.72
2023-03-16T12:03:41.121Z,98048.81
2023-03-16T12:06:35.359Z,98049.72
2023-03-16T12:10:26.504Z,98045.31
2023-03-16T12:13:17.888Z,98036.25
2023-03-16T12:15:55.800Z,98038.19
2023-03-16T12:18:41.610Z,98032.72
2023-03-16T12:21:20.023Z,98027.94
2023-03-16T12:23:55.420Z,98030.00
2023-03-16T12:26:35.457Z,98037.06
2023-03-16T12:29:17.431Z,98025.63
2023-03-16T12:31:57.025Z,98012.91
2023-03-16T12:34:36.431Z,98010.44
2023-03-16T12:37:35.962Z,98012.53
2023-03-16T12:40:27.040Z,98003.53
2023-03-16T12:43:20.023Z,97998.78
2023-03-16T12:46:02.731Z,97999.84
2023-03-16T12:48:42.005Z,97997.38
2023-03-16T12:51:15.898Z,97995.00
2023-03-16T12:53:57.416Z,97993.22
2023-03-16T12:56:32.700Z,97971.59
2023-03-16T12:59:10.068Z,97970.28
2023-03-16T13:01:45.848Z,97972.88
2023-03-16T13:04:22.197Z,97975.09
2023-03-16T13:07:05.393Z,97990.09
2023-03-16T13:09:45.560Z,97991.28
2023-03-16T13:12:29.200Z,97979.16
2023-03-16T13:15:05.120Z,97984.19
2023-03-16T13:17:39.247Z,97980.56
2023-03-16T13:20:31.614Z,97983.06
2023-03-16T13:23:22.185Z,97981.81
2023-03-16T13:26:12.374Z,97987.84
2023-03-16T13:28:51.978Z,97987.47
2023-03-16T13:31:34.240Z,97987.63
2023-03-16T13:34:09.177Z,97982.19
2023-03-16T13:36:46.181Z,97973.38
2023-03-16T13:39:22.351Z,97974.13
2023-03-16T13:42:01.844Z,97973.25
2023-03-16T13:44:34.945Z,97965.59
2023-03-16T13:47:14.851Z,97975.00
2023-03-16T13:49:50.914Z,97958.38
2023-03-16T13:52:29.301Z,97956.16
2023-03-16T13:55:07.268Z,97950.72
2023-03-16T13:57:43.261Z,97943.69
2023-03-16T14:00:20.561Z,97941.41
2023-03-16T14:02:57.645Z,97941.75
2023-03-16T14:05:35.172Z,97932.13
2023-03-16T14:08:17.522Z,97936.47
2023-03-16T14:10:51.674Z,97940.38
2023-03-16T14:13:38.232Z,97939.34
2023-03-16T14:16:17.661Z,97921.00
2023-03-16T14:18:55.997Z,97927.34
2023-03-16T14:21:32.116Z,97923.63
2023-03-16T14:24:09.337Z,97915.97
2023-03-16T14:26:44.790Z,97915.97
2023-03-16T14:29:25.894Z,97907.91
2023-03-16T14:32:00.434Z,97912.31
2023-03-16T14:34:39.486Z,97907.88
2023-03-16T14:37:15.816Z,97894.72
2023-03-16T14:40:02.654Z,97902.59
2023-03-16T14:42:37.286Z,97901.97
2023-03-16T14:45:14.743Z,97889.22
2023-03-16T14:47:49.932Z,97889.31
2023-03-16T14:50:26.949Z,97884.47
2023-03-16T14:53:00.462Z,97885.63
2023-03-16T14:55:33.515Z,97881.38
2023-03-16T14:58:06.757Z,97878.91
2023-03-16T15:00:52.327Z,97880.19
2023-03-16T15:03:34.156Z,97875.06
2023-03-16T15:06:08.842Z,97867.13
2023-03-16T15:08:46.962Z,97880.09
2023-03-16T15:11:21.590Z,97871.53
2023-03-16T15:14:03.963Z,97875.00
2023-03-16T15:16:37.044Z,97889.34
2023-03-16T15:19:10.336Z,97868.78
2023-03-16T15:21:44.811Z,97867.94
2023-03-16T15:24:17.898Z,97879.69
2023-03-16T15:26:51.782Z,97879.06
2023-03-16T15:29:25.171Z,97875.22
2023-03-16T15:31:58.278Z,97876.97
2023-03-16T15:34:31.296Z,97878.25
2023-03-16T15:37:06.676Z,97872.81
2023-03-16T15:39:40.147Z,97880.66
2023-03-16T15:42:16.561Z,97876.03
2023-03-16T15:44:49.638Z,97871.13
2023-03-16T15:47:23.209Z,97876.56
2023-03-16T15:49:56.533Z,97863.84
2023-03-16T15:52:35.256Z,97878.69
2023-03-16T15:55:16.266Z,97883.41
2023-03-16T15:57:54.505Z,97874.53
2023-03-16T16:00:31.773Z,97870.41
2023-03-16T16:03:07.280Z,97861.25
2023-03-16T16:05:40.773Z,97870.06
2023-03-16T16:08:15.433Z,97872.44
2023-03-16T16:10:50.221Z,97878.34
2023-03-16T16:13:37.564Z,97879.16
2023-03-16T16:16:16.900Z,97877.72
2023-03-16T16:18:50.868Z,97878.13
2023-03-16T16:21:28.876Z,97880.44
2023-03-16T16:24:03.302Z,97876.75
2023-03-16T16:26:51.677Z,97875.47
2023-03-16T16:29:31.893Z,97877.69
2023-03-16T16:32:06.342Z,97871.28
2023-03-16T16:34:39.402Z,97877.25
2023-03-16T16:37:12.653Z,97886.34
2023-03-16T16:39:47.391Z,97888.41
2023-03-16T16:42:20.526Z,97887.19
2023-03-16T16:44:54.731Z,97885.50
2023-03-16T16:47:27.847Z,97890.81
2023-03-16T16:50:00.900Z,97887.31
2023-03-16T16:52:34.012Z,97877.97
2023-03-16T16:55:09.587Z,97874.94
2023-03-16T16:57:43.267Z,97877.78
2023-03-16T17:00:23.149Z,97869.78
2023-03-16T17:02:58.612Z,97869.78
2023-03-16T17:05:32.697Z,97869.78
2023-03-16T17:08:05.946Z,97874.59
2023-03-16T17:10:40.541Z,97864.66
2023-03-16T17:13:27.274Z,97860.13
2023-03-16T17:16:00.420Z,97861.16
2023-03-16T17:18:33.910Z,97864.09
2023-03-16T17:21:10.371Z,97868.16
2023-03-16T17:23:43.606Z,97870.44
2023-03-16T17:26:20.550Z,97876.56
2023-03-16T17:28:58.342Z,97874.63
2023-03-16T17:31:36.567Z,97867.94
2023-03-16T17:34:18.270Z,97877.00
2023-03-16T17:36:52.069Z,97872.31
2023-03-16T17:39:28.008Z,97881.41
2023-03-16T17:42:06.124Z,97875.00
2023-03-16T17:44:42.289Z,97874.84
2023-03-16T17:47:17.665Z,97868.50
2023-03-16T17:49:51.353Z,97870.03
2023-03-16T17:52:26.553Z,97873.75
2023-03-16T17:54:59.648Z,97868.63
2023-03-16T17:57:35.298Z,97862.28
2023-03-16T18:00:23.118Z,97865.22
2023-03-16T18:02:58.658Z,97866.34
2023-03-16T18:05:34.267Z,97856.53
2023-03-16T18:08:16.923Z,97859.00
2023-03-16T18:10:54.731Z,97858.72
2023-03-16T18:13:32.641Z,97862.97
2023-03-16T18:16:07.713Z,97855.13
2023-03-16T18:18:42.918Z,97864.03
2023-03-16T18:21:21.722Z,97859.41
2023-03-16T18:23:55.819Z,97864.81
2023-03-16T18:26:29.683Z,97864.59
2023-03-16T18:29:05.648Z,97867.75
2023-03-16T18:31:38.707Z,97871.78
2023-03-16T18:34:21.875Z,97866.69
2023-03-16T18:36:55.767Z,97874.34
2023-03-16T18:39:28.805Z,97869.91
2023-03-16T18:42:03.238Z,97866.84
2023-03-16T18:44:37.925Z,97871.94
2023-03-16T18:47:19.168Z,97868.53
2023-03-16T18:49:54.162Z,97869.88
2023-03-16T18:52:32.701Z,97865.22
2023-03-16T18:55:14.990Z,97862.16
2023-03-16T18:57:51.412Z,97869.03
2023-03-16T19:00:29.716Z,97859.19
2023-03-16T19:03:03.392Z,97854.47
2023-03-16T19:05:39.493Z,97858.19
2023-03-16T19:08:14.830Z,97858.84
2023-03-16T19:10:53.046Z,97852.88
2023-03-16T19:13:27.037Z,97860.50
2023-03-16T19:16:03.279Z,97857.00
2023-03-16T19:18:42.019Z,97854.03
2023-03-16T19:21:18.511Z,97858.44
2023-03-16T19:23:56.984Z,97854.72
2023-03-16T19:26:31.979Z,97853.16
2023-03-16T19:29:06.898Z,97845.88
2023-03-16T19:31:41.759Z,97836.84
2023-03-16T19:34:18.536Z,97844.25
2023-03-16T19:36:53.887Z,97841.13
2023-03-16T19:39:27.788Z,97839.81
2023-03-16T19:42:01.219Z,97841.56
2023-03-16T19:44:34.236Z,97837.59
2023-03-16T19:47:24.371Z,97837.38
2023-03-16T19:49:58.619Z,97827.53
2023-03-16T19:52:32.779Z,97837.38
2023-03-16T19:55:06.902Z,97842.53
2023-03-16T19:57:39.982Z,97840.31
2023-03-16T20:00:21.753Z,97846.25
2023-03-16T20:02:57.314Z,97838.16
2023-03-16T20:05:32.961Z,97837.34
2023-03-16T20:08:22.348Z,97831.16
2023-03-16T20:11:02.113Z,97827.63
2023-03-16T20:13:36.012Z,97839.78
2023-03-16T20:16:12.131Z,97835.22
2023-03-16T20:18:55.788Z,97826.72
2023-03-16T20:21:29.899Z,97833.19
2023-03-16T20:24:03.385Z,97833.44
2023-03-16T20:26:37.194Z,97826.53
2023-03-16T20:29:19.864Z,97828.16
2023-03-16T20:31:53.014Z,97832.63
2023-03-16T20:34:30.805Z,97824.91
2023-03-16T20:37:03.881Z,97818.97
2023-03-16T20:39:38.551Z,97826.91
2023-03-16T20:42:17.063Z,97822.66
2023-03-16T20:44:50.117Z,97826.00
2023-03-16T20:47:25.772Z,97830.84
2023-03-16T20:50:00.256Z,97825.72
2023-03-16T20:52:33.670Z,97818.00
2023-03-16T20:55:07.266Z,97819.53
2023-03-16T20:57:43.344Z,97816.44
2023-03-16T21:00:27.618Z,97823.63
2023-03-16T21:03:01.746Z,97830.47
2023-03-16T21:05:36.415Z,97827.06
2023-03-16T21:08:09.678Z,97831.00
2023-03-16T21:10:44.695Z,97829.09
2023-03-16T21:13:22.857Z,97827.81
2023-03-16T21:15:57.924Z,97815.16
2023-03-16T21:18:31.483Z,97822.28
2023-03-16T21:21:06.618Z,97822.19
2023-03-16T21:23:39.658Z,97816.97
2023-03-16T21:26:17.729Z,97817.84
2023-03-16T21:28:56.549Z,97821.94
2023-03-16T21:31:29.643Z,97816.47
2023-03-16T21:34:02.977Z,97812.19
2023-03-16T21:36:37.437Z,97807.38
2023-03-16T21:39:20.231Z,97811.44
2023-03-16T21:41:53.553Z,97813.19
2023-03-16T21:44:26.658Z,97803.69
2023-03-16T21:46:59.822Z,97801.03
2023-03-16T21:49:32.966Z,97799.63
2023-03-16T21:52:23.912Z,97797.75
2023-03-16T21:54:58.519Z,97792.22
2023-03-16T21:57:32.354Z,97801.06
2023-03-16T22:00:06.389Z,97794.25
2023-03-16T22:02:39.849Z,97791.34
2023-03-16T22:05:33.728Z,97787.16
2023-03-16T22:08:16.896Z,97793.25
2023-03-16T22:10:50.619Z,97784.25
2023-03-16T22:13:24.435Z,97781.75
2023-03-16T22:15:59.320Z,97783.88
2023-03-16T22:18:36.821Z,97790.19
2023-03-16T22:21:27.139Z,97786.19
2023-03-16T22:24:03.570Z,97778.97
2023-03-16T22:26:37.368Z,97779.72
2023-03-16T22:29:25.259Z,97775.31
2023-03-16T22:32:02.866Z,97773.28
2023-03-16T22:34:43.590Z,97765.56
2023-03-16T22:37:21.381Z,97764.94
2023-03-16T22:39:57.361Z,97763.06
2023-03-16T22:42:37.096Z,97770.00
2023-03-16T22:45:18.990Z,97756.97
2023-03-16T22:47:52.739Z,97762.16
2023-03-16T22:50:28.728Z,97758.25
2023-03-16T22:53:05.793Z,97754.81
2023-03-16T22:55:41.456Z,97754.31
2023-03-16T22:58:20.498Z,97763.53
2023-03-16T23:00:55.036Z,97747.28
2023-03-16T23:03:28.529Z,97753.69
2023-03-16T23:06:01.560Z,97751.03
2023-03-16T23:08:34.673Z,97749.91
2023-03-16T23:11:16.667Z,97740.44
2023-03-16T23:13:49.843Z,97729.34
2023-03-16T23:16:25.541Z,97736.16
2023-03-16T23:18:58.813Z,97733.88
2023-03-16T23:21:31.896Z,97732.88
2023-03-16T23:24:05.715Z,97738.69
2023-03-16T23:26:40.154Z,97731.72
2023-03-16T23:29:13.352Z,97734.75
2023-03-16T23:31:46.659Z,97734.13
2023-03-16T23:34:22.897Z,97732.25
2023-03-16T23:36:56.132Z,97727.66
2023-03-16T23:39:29.489Z,97730.84
2023-03-16T23:42:04.070Z,97734.88
2023-03-16T23:44:37.419Z,97732.47
2023-03-16T23:47:12.126Z,97741.47
2023-03-16T23:49:45.341Z,97731.22
2023-03-16T23:52:18.415Z,97724.75
2023-03-16T23:54:52.076Z,97724.03
2023-03-16T23:57:26.488Z,97717.19
2023-03-16T23:59:59.509Z,97719.59
